Afton, New York
Current Conditions -  °F | °C
As of 7:53 AM on Tuesday 21 Oct 2014 (Local Time) from KBGM Reporting Station
Overcast Overcast  
Wind Chill: 44°   Ceiling: 3300
Heat Index: 47°   Visibility: 10mi
Dew Point: 43°   Wind: 6mph
Humidity: 86%   Direction: 150°SSE
Pressure: 29.83"   Gusts: NA
Location:  42.23°N, 75.53°W
Report Text: KBGM 211153Z 15005KT 10SM BKN033 OVC043 08/06 A2983 RMK AO2 SLP107 60000 T00830061 10094 20078 53001
Loading
Personal Weather Stations






























Interactive Weather Map
Tropical Storm Tracking
New forecast layout! Learn more

10-Day Weather Forecast

Advertisements
Track Severe Weather on mobile